createdAt,value
2022-08-26T00:02:34.161Z,99.90
2022-08-26T00:05:35.973Z,99.90
2022-08-26T00:08:38.833Z,99.90
2022-08-26T00:11:44.452Z,99.90
2022-08-26T00:14:46.437Z,99.90
2022-08-26T00:17:50.058Z,99.90
2022-08-26T00:20:51.825Z,99.90
2022-08-26T00:23:53.652Z,99.90
2022-08-26T00:26:55.384Z,99.90
2022-08-26T00:29:57.275Z,99.90
2022-08-26T00:33:00.311Z,99.90
2022-08-26T00:36:02.285Z,99.90
2022-08-26T00:39:06.900Z,99.40
2022-08-26T00:42:08.603Z,98.80
2022-08-26T00:45:11.809Z,98.80
2022-08-26T00:48:17.932Z,99.90
2022-08-26T00:51:23.165Z,99.90
2022-08-26T00:54:32.428Z,99.90
2022-08-26T00:57:35.661Z,99.90
2022-08-26T01:00:37.483Z,99.90
2022-08-26T01:03:41.645Z,99.90
2022-08-26T01:06:44.304Z,99.90
2022-08-26T01:09:46.868Z,99.80
2022-08-26T01:12:57.296Z,99.90
2022-08-26T01:16:02.509Z,99.20
2022-08-26T01:19:25.211Z,99.00
2022-08-26T01:22:45.408Z,98.30
2022-08-26T01:25:51.973Z,98.20
2022-08-26T01:28:56.609Z,98.30
2022-08-26T01:31:59.045Z,98.40
2022-08-26T01:35:01.527Z,98.20
2022-08-26T01:38:04.653Z,98.30
2022-08-26T01:41:19.614Z,98.80
2022-08-26T01:44:25.988Z,99.40
2022-08-26T01:47:31.386Z,99.70
2022-08-26T01:50:35.867Z,99.90
2022-08-26T01:53:39.401Z,99.90
2022-08-26T01:56:43.676Z,99.90
2022-08-26T01:59:46.952Z,99.90
2022-08-26T02:03:12.072Z,99.90
2022-08-26T02:06:14.933Z,99.90
2022-08-26T02:09:18.764Z,99.90
2022-08-26T02:12:22.784Z,99.90
2022-08-26T02:15:24.707Z,99.90
2022-08-26T02:18:29.673Z,99.90
2022-08-26T02:21:32.504Z,99.90
2022-08-26T02:24:54.729Z,99.90
2022-08-26T02:27:56.849Z,99.90
2022-08-26T02:30:58.600Z,99.90
2022-08-26T02:34:15.242Z,99.90
2022-08-26T02:37:17.630Z,99.90
2022-08-26T02:40:25.468Z,99.90
2022-08-26T02:43:31.403Z,99.90
2022-08-26T02:46:35.077Z,99.90
2022-08-26T02:49:42.008Z,99.90
2022-08-26T02:52:46.228Z,99.90
2022-08-26T02:55:49.413Z,99.90
2022-08-26T02:58:51.742Z,99.90
2022-08-26T03:01:56.088Z,99.90
2022-08-26T03:05:01.964Z,99.90
2022-08-26T03:08:04.628Z,99.90
2022-08-26T03:11:06.317Z,99.90
2022-08-26T03:14:08.414Z,99.90
2022-08-26T03:17:10.137Z,99.90
2022-08-26T03:20:13.682Z,99.90
2022-08-26T03:23:17.417Z,99.90
2022-08-26T03:26:20.677Z,99.90
2022-08-26T03:29:42.095Z,99.90
2022-08-26T03:32:44.467Z,99.90
2022-08-26T03:35:47.966Z,99.90
2022-08-26T03:38:52.545Z,99.90
2022-08-26T03:41:55.356Z,99.90
2022-08-26T03:44:57.121Z,99.90
2022-08-26T03:47:59.386Z,99.90
2022-08-26T03:51:03.163Z,99.90
2022-08-26T03:54:06.030Z,99.90
2022-08-26T03:57:10.025Z,99.90
2022-08-26T04:00:18.427Z,99.90
2022-08-26T04:03:40.409Z,99.90
2022-08-26T04:06:43.418Z,99.90
2022-08-26T04:09:46.552Z,99.90
2022-08-26T04:12:48.486Z,99.90
2022-08-26T04:15:50.547Z,99.90
2022-08-26T04:18:52.830Z,99.90
2022-08-26T04:21:54.614Z,99.90
2022-08-26T04:24:56.581Z,99.90
2022-08-26T04:27:58.338Z,99.90
2022-08-26T04:31:00.170Z,99.90
2022-08-26T04:34:02.830Z,99.90
2022-08-26T04:37:05.616Z,99.90
2022-08-26T04:40:09.896Z,99.90
2022-08-26T04:43:11.933Z,99.90
2022-08-26T04:46:18.435Z,99.90
2022-08-26T04:49:21.133Z,99.90
2022-08-26T04:52:23.283Z,99.90
2022-08-26T04:55:38.486Z,99.90
2022-08-26T04:58:41.855Z,99.90
2022-08-26T05:01:45.913Z,99.90
2022-08-26T05:04:48.314Z,99.90
2022-08-26T05:07:53.632Z,99.90
2022-08-26T05:10:55.990Z,99.90
2022-08-26T05:14:01.623Z,99.90
2022-08-26T05:17:04.219Z,99.90
2022-08-26T05:20:06.837Z,99.90
2022-08-26T05:23:08.995Z,99.90
2022-08-26T05:26:10.849Z,99.90
2022-08-26T05:29:13.872Z,99.90
2022-08-26T05:32:15.573Z,99.90
2022-08-26T05:35:17.927Z,99.90
2022-08-26T05:38:21.615Z,99.90
2022-08-26T05:41:34.171Z,99.90
2022-08-26T05:44:55.503Z,99.90
2022-08-26T05:47:57.892Z,99.90
2022-08-26T05:51:06.418Z,99.90
2022-08-26T05:54:08.717Z,99.90
2022-08-26T05:57:13.752Z,99.90
2022-08-26T06:00:16.071Z,99.90
2022-08-26T06:03:17.822Z,99.90
2022-08-26T06:06:27.790Z,99.90
2022-08-26T06:09:30.773Z,99.90
2022-08-26T06:12:33.688Z,99.90
2022-08-26T06:15:38.654Z,99.90
2022-08-26T06:18:45.717Z,99.90
2022-08-26T06:21:51.339Z,99.90
2022-08-26T06:25:14.819Z,99.90
2022-08-26T06:28:17.230Z,99.90
2022-08-26T06:31:19.851Z,99.90
2022-08-26T06:34:23.234Z,99.90
2022-08-26T06:37:31.328Z,99.90
2022-08-26T06:40:50.457Z,99.90
2022-08-26T06:43:52.359Z,99.90
2022-08-26T06:46:54.283Z,99.90
2022-08-26T06:49:56.470Z,99.90
2022-08-26T06:52:58.388Z,99.90
2022-08-26T06:56:07.291Z,99.90
2022-08-26T06:59:12.553Z,99.90
2022-08-26T07:02:15.074Z,99.90
2022-08-26T07:05:19.583Z,99.90
2022-08-26T07:08:22.371Z,99.90
2022-08-26T07:11:24.068Z,99.90
2022-08-26T07:14:26.541Z,99.90
2022-08-26T07:17:28.471Z,99.90
2022-08-26T07:20:30.247Z,99.90
2022-08-26T07:23:32.820Z,99.90
2022-08-26T07:26:35.170Z,99.90
2022-08-26T07:29:39.491Z,99.90
2022-08-26T07:32:41.851Z,99.90
2022-08-26T07:35:44.755Z,99.90
2022-08-26T07:38:48.085Z,99.90
2022-08-26T07:41:50.908Z,99.90
2022-08-26T07:44:52.634Z,99.90
2022-08-26T07:47:54.707Z,99.90
2022-08-26T07:50:56.431Z,99.90
2022-08-26T07:53:58.619Z,99.90
2022-08-26T07:57:00.415Z,99.90
2022-08-26T08:00:12.759Z,99.90
2022-08-26T08:03:15.179Z,99.90
2022-08-26T08:06:17.928Z,99.90
2022-08-26T08:09:19.777Z,99.90
2022-08-26T08:12:24.128Z,99.90
2022-08-26T08:15:29.795Z,99.90
2022-08-26T08:18:31.812Z,99.90
2022-08-26T08:21:33.547Z,99.90
2022-08-26T08:24:35.489Z,99.90
2022-08-26T08:27:38.803Z,99.90
2022-08-26T08:30:41.693Z,99.90
2022-08-26T08:33:43.421Z,99.90
2022-08-26T08:36:46.206Z,99.90
2022-08-26T08:39:48.979Z,99.90
2022-08-26T08:43:06.092Z,99.90
2022-08-26T08:46:12.730Z,99.90
2022-08-26T08:49:15.248Z,99.90
2022-08-26T08:52:29.415Z,99.90
2022-08-26T08:55:55.918Z,99.90
2022-08-26T08:59:19.557Z,99.90
2022-08-26T09:02:51.073Z,99.90
2022-08-26T09:05:54.565Z,99.90
2022-08-26T09:08:57.527Z,99.90
2022-08-26T09:12:01.626Z,99.90
2022-08-26T09:15:11.216Z,99.90
2022-08-26T09:18:34.458Z,99.90
2022-08-26T09:21:36.245Z,99.90
2022-08-26T09:24:48.471Z,99.90
2022-08-26T09:27:53.449Z,99.90
2022-08-26T09:31:14.071Z,99.90
2022-08-26T09:34:27.628Z,99.90
2022-08-26T09:41:05.124Z,99.90
2022-08-26T09:44:09.789Z,99.90
2022-08-26T09:47:32.061Z,99.90
2022-08-26T09:50:54.756Z,99.90
2022-08-26T09:54:01.790Z,99.90
2022-08-26T09:57:26.976Z,99.90
2022-08-26T10:00:40.325Z,99.90
2022-08-26T10:03:42.934Z,99.90
2022-08-26T10:06:57.535Z,99.90
2022-08-26T10:09:59.895Z,99.90
2022-08-26T10:13:09.444Z,99.90
2022-08-26T10:16:22.131Z,99.90
2022-08-26T10:19:41.743Z,99.90
2022-08-26T10:23:14.095Z,99.90
2022-08-26T10:26:24.283Z,99.90
2022-08-26T10:29:34.144Z,99.90
2022-08-26T10:32:41.687Z,99.90
2022-08-26T10:35:57.469Z,99.90
2022-08-26T10:39:04.429Z,99.90
2022-08-26T10:42:21.949Z,99.90
2022-08-26T10:45:27.581Z,99.90
2022-08-26T10:48:41.925Z,99.90
2022-08-26T10:52:12.358Z,99.90
2022-08-26T10:55:49.119Z,99.90
2022-08-26T10:59:20.510Z,99.90
2022-08-26T11:02:31.369Z,99.90
2022-08-26T11:05:33.296Z,99.90
2022-08-26T11:08:34.994Z,99.90
2022-08-26T11:11:39.739Z,99.90
2022-08-26T11:14:53.629Z,99.90
2022-08-26T11:18:01.917Z,99.90
2022-08-26T11:21:16.359Z,99.90
2022-08-26T11:24:52.317Z,99.90
2022-08-26T11:27:58.230Z,99.90
2022-08-26T11:30:59.948Z,99.90
2022-08-26T11:34:03.493Z,99.90
2022-08-26T11:37:15.554Z,99.90
2022-08-26T11:40:26.702Z,99.90
2022-08-26T11:43:29.872Z,99.90
2022-08-26T11:46:35.682Z,99.90
2022-08-26T11:49:37.908Z,99.90
2022-08-26T11:52:39.712Z,99.90
2022-08-26T11:55:44.816Z,99.90
2022-08-26T11:58:49.878Z,99.90
2022-08-26T12:01:53.930Z,99.90
2022-08-26T12:04:56.729Z,99.90
2022-08-26T12:08:11.932Z,99.90
2022-08-26T12:11:23.442Z,99.90
2022-08-26T12:14:27.663Z,99.90
2022-08-26T12:17:29.923Z,99.90
2022-08-26T12:20:46.212Z,99.90
2022-08-26T12:23:50.830Z,99.90
2022-08-26T12:27:18.357Z,99.90
2022-08-26T12:30:24.530Z,99.90
2022-08-26T12:33:28.742Z,99.90
2022-08-26T12:36:38.891Z,99.90
2022-08-26T12:39:44.454Z,99.90
2022-08-26T12:42:46.697Z,99.90
2022-08-26T12:45:57.662Z,99.90
2022-08-26T12:49:01.675Z,99.90
2022-08-26T12:52:04.923Z,99.90
2022-08-26T12:55:19.119Z,99.90
2022-08-26T12:58:28.942Z,99.90
2022-08-26T13:01:38.930Z,99.90
2022-08-26T13:04:42.715Z,99.90
2022-08-26T13:07:44.483Z,99.90
2022-08-26T13:10:47.666Z,99.90
2022-08-26T13:13:52.547Z,99.90
2022-08-26T13:16:55.260Z,99.90
2022-08-26T13:20:03.316Z,99.90
2022-08-26T13:23:05.687Z,99.90
2022-08-26T13:26:07.508Z,99.90
2022-08-26T13:29:10.771Z,99.90
2022-08-26T13:32:12.968Z,99.90
2022-08-26T13:35:14.773Z,99.90
2022-08-26T13:38:20.575Z,99.90
2022-08-26T13:41:36.180Z,99.90
2022-08-26T13:44:38.951Z,99.90
2022-08-26T13:47:40.649Z,99.90
2022-08-26T13:50:42.355Z,99.90
2022-08-26T13:53:44.373Z,99.90
2022-08-26T13:56:46.100Z,99.90
2022-08-26T13:59:47.803Z,99.90
2022-08-26T14:02:49.776Z,99.90
2022-08-26T14:05:53.276Z,99.90
2022-08-26T14:08:55.034Z,99.90
2022-08-26T14:11:58.128Z,99.90
2022-08-26T14:15:00.693Z,99.90
2022-08-26T14:18:05.025Z,99.90
2022-08-26T14:21:10.920Z,99.90
2022-08-26T14:24:12.657Z,99.90
2022-08-26T14:27:14.795Z,99.90
2022-08-26T14:30:17.301Z,99.90
2022-08-26T14:33:23.312Z,99.90
2022-08-26T14:36:33.896Z,99.90
2022-08-26T14:39:35.777Z,99.90
2022-08-26T14:42:37.496Z,99.90
2022-08-26T14:48:49.310Z,99.90
2022-08-26T14:51:51.036Z,99.90
2022-08-26T14:54:54.833Z,99.90
2022-08-26T14:57:57.111Z,99.90
2022-08-26T15:00:59.725Z,99.90
2022-08-26T15:04:06.128Z,99.90
2022-08-26T15:07:12.733Z,99.90
2022-08-26T15:10:16.740Z,99.90
2022-08-26T15:13:18.425Z,99.90
2022-08-26T15:16:20.692Z,99.90
2022-08-26T15:19:24.354Z,99.90
2022-08-26T15:22:26.572Z,99.90
2022-08-26T15:25:31.663Z,99.90
2022-08-26T15:28:33.363Z,99.90
2022-08-26T15:31:35.487Z,99.90
2022-08-26T15:34:37.653Z,99.90
2022-08-26T15:37:39.455Z,99.90
2022-08-26T15:40:41.376Z,99.90
2022-08-26T15:43:43.206Z,99.90
2022-08-26T15:46:46.929Z,99.90
2022-08-26T15:49:48.799Z,99.90
2022-08-26T15:52:50.833Z,99.90
2022-08-26T15:55:56.442Z,99.90
2022-08-26T15:58:59.056Z,99.90
2022-08-26T16:02:01.786Z,99.90
2022-08-26T16:05:03.831Z,99.90
2022-08-26T16:08:07.534Z,99.90
2022-08-26T16:11:09.470Z,99.90
2022-08-26T16:14:11.295Z,99.90
2022-08-26T16:17:13.124Z,99.90
2022-08-26T16:20:16.805Z,99.90
2022-08-26T16:23:18.838Z,99.90
2022-08-26T16:26:26.722Z,99.90
2022-08-26T16:29:28.472Z,99.90
2022-08-26T16:32:31.330Z,99.90
2022-08-26T16:35:33.453Z,99.90
2022-08-26T16:38:37.483Z,99.90
2022-08-26T16:41:39.651Z,99.90
2022-08-26T16:44:44.460Z,99.90
2022-08-26T16:47:47.823Z,99.90
2022-08-26T16:50:50.521Z,99.90
2022-08-26T16:53:53.736Z,99.90
2022-08-26T16:56:55.507Z,99.90
2022-08-26T16:59:57.579Z,99.90
2022-08-26T17:03:01.002Z,99.90
2022-08-26T17:06:03.143Z,99.90
2022-08-26T17:09:04.988Z,99.90
2022-08-26T17:12:06.990Z,99.90
2022-08-26T17:15:09.511Z,99.90
2022-08-26T17:18:12.042Z,99.90
2022-08-26T17:21:14.154Z,99.90
2022-08-26T17:24:16.021Z,99.90
2022-08-26T17:27:17.794Z,99.90
2022-08-26T17:30:20.965Z,99.90
2022-08-26T17:33:25.252Z,99.90
2022-08-26T17:36:28.404Z,99.90
2022-08-26T17:39:30.241Z,99.90
2022-08-26T17:42:32.017Z,99.90
2022-08-26T17:45:38.408Z,99.90
2022-08-26T17:48:41.097Z,99.90
2022-08-26T17:51:42.853Z,99.90
2022-08-26T17:54:44.552Z,99.90
2022-08-26T17:57:53.191Z,99.90
2022-08-26T18:00:55.518Z,99.90
2022-08-26T18:04:00.358Z,99.90
2022-08-26T18:07:02.959Z,99.90
2022-08-26T18:10:07.395Z,99.90
2022-08-26T18:13:11.490Z,99.90
2022-08-26T18:16:13.394Z,99.90
2022-08-26T18:19:15.125Z,99.90
2022-08-26T18:22:16.839Z,99.90
2022-08-26T18:25:18.913Z,99.90
2022-08-26T18:28:20.843Z,99.90
2022-08-26T18:31:23.166Z,99.90
2022-08-26T18:34:24.970Z,99.90
2022-08-26T18:37:34.189Z,99.90
2022-08-26T18:40:38.431Z,99.90
2022-08-26T18:43:40.165Z,99.90
2022-08-26T18:46:42.617Z,99.90
2022-08-26T18:49:46.109Z,99.90
2022-08-26T18:52:47.848Z,99.90
2022-08-26T18:55:49.567Z,99.90
2022-08-26T18:58:51.561Z,99.90
2022-08-26T19:01:53.559Z,99.90
2022-08-26T19:04:55.437Z,99.90
2022-08-26T19:07:57.288Z,99.90
2022-08-26T19:10:59.873Z,99.90
2022-08-26T19:14:02.295Z,99.90
2022-08-26T19:17:04.635Z,99.90
2022-08-26T19:20:07.388Z,99.90
2022-08-26T19:23:21.561Z,99.90
2022-08-26T19:26:31.907Z,99.90
2022-08-26T19:29:35.635Z,99.90
2022-08-26T19:32:37.451Z,99.90
2022-08-26T19:35:39.204Z,99.90
2022-08-26T19:38:41.568Z,99.90
2022-08-26T19:41:44.007Z,99.90
2022-08-26T19:45:04.140Z,99.90
2022-08-26T19:48:06.080Z,99.90
2022-08-26T19:51:07.915Z,99.90
2022-08-26T19:54:09.660Z,99.90
2022-08-26T19:57:11.687Z,99.90
2022-08-26T20:00:16.301Z,99.90
2022-08-26T20:03:18.078Z,99.90
2022-08-26T20:06:20.393Z,99.90
2022-08-26T20:09:22.224Z,99.90
2022-08-26T20:12:24.754Z,99.90
2022-08-26T20:15:28.544Z,99.90
2022-08-26T20:18:49.783Z,99.90
2022-08-26T20:21:51.503Z,99.90
2022-08-26T20:24:53.933Z,99.90
2022-08-26T20:27:55.608Z,99.90
2022-08-26T20:30:57.399Z,99.90
2022-08-26T20:33:59.143Z,99.90
2022-08-26T20:37:01.959Z,99.90
2022-08-26T20:40:04.731Z,99.90
2022-08-26T20:43:06.781Z,99.90
2022-08-26T20:46:17.270Z,99.90
2022-08-26T20:49:20.945Z,99.90
2022-08-26T20:52:22.764Z,99.90
2022-08-26T20:55:26.298Z,99.90
2022-08-26T20:58:28.281Z,99.90
2022-08-26T21:01:34.638Z,99.90
2022-08-26T21:04:36.623Z,99.90
2022-08-26T21:07:39.299Z,99.90
2022-08-26T21:10:41.025Z,99.90
2022-08-26T21:14:03.985Z,99.90
2022-08-26T21:17:04.881Z,99.90
2022-08-26T21:20:07.343Z,99.90
2022-08-26T21:23:09.053Z,99.90
2022-08-26T21:26:13.589Z,99.90
2022-08-26T21:29:15.375Z,99.90
2022-08-26T21:32:17.273Z,99.90
2022-08-26T21:35:19.309Z,99.90
2022-08-26T21:38:21.780Z,99.90
2022-08-26T21:41:24.920Z,99.90
2022-08-26T21:44:26.684Z,99.90
2022-08-26T21:47:28.765Z,99.90
2022-08-26T21:50:30.535Z,99.90
2022-08-26T21:53:32.317Z,99.90
2022-08-26T21:56:39.547Z,99.90
2022-08-26T21:59:41.317Z,99.90
2022-08-26T22:02:43.101Z,99.90
2022-08-26T22:05:46.381Z,99.90
2022-08-26T22:08:48.729Z,99.90
2022-08-26T22:11:51.639Z,99.90
2022-08-26T22:14:53.840Z,99.90
2022-08-26T22:17:55.557Z,99.90
2022-08-26T22:21:05.715Z,99.90
2022-08-26T22:24:08.550Z,99.90
2022-08-26T22:27:11.937Z,99.90
2022-08-26T22:30:13.837Z,99.90
2022-08-26T22:33:16.703Z,99.90
2022-08-26T22:36:20.951Z,99.90
2022-08-26T22:39:25.120Z,99.90
2022-08-26T22:42:27.069Z,99.90
2022-08-26T22:45:31.254Z,99.90
2022-08-26T22:48:33.143Z,99.90
2022-08-26T22:51:34.996Z,99.90
2022-08-26T22:54:36.752Z,99.90
2022-08-26T22:57:38.981Z,99.90
2022-08-26T23:00:42.130Z,99.90
2022-08-26T23:03:45.111Z,99.90
2022-08-26T23:06:47.500Z,99.90
2022-08-26T23:09:49.734Z,99.90
2022-08-26T23:12:52.371Z,99.90
2022-08-26T23:16:02.267Z,99.90
2022-08-26T23:19:04.944Z,99.90
2022-08-26T23:22:06.859Z,99.90
2022-08-26T23:25:10.549Z,99.90
2022-08-26T23:28:13.047Z,99.90
2022-08-26T23:31:14.830Z,99.90
2022-08-26T23:34:35.412Z,99.90
2022-08-26T23:37:42.250Z,99.90
2022-08-26T23:40:44.003Z,99.90
2022-08-26T23:43:45.738Z,99.90
2022-08-26T23:46:47.510Z,99.90
2022-08-26T23:49:49.285Z,99.90
2022-08-26T23:53:05.997Z,99.90
2022-08-26T23:56:14.876Z,99.90
2022-08-26T23:59:16.616Z,99.90
